Time;durP1;ratioP1;P1;durP2;ratioP2;P2;SDS_P1;SDS_P2;PMS_P1;PMS_P2;Temp;Humidity;BMP_temperature;BMP_pressure;BME280_temperature;BME280_humidity;BME280_pressure;Samples;Min_cycle;Max_cycle;Signal;HPM_P1;HPM_P2
2021/06/28 00:02:13;;;;;;;8.43;4.40;;;;;;;20.83;100.00;95895.78;5031655;28;20283;-89
2021/06/28 00:04:40;;;;;;;6.23;4.53;;;;;;;20.82;100.00;95896.03;5031591;28;20222;-89
2021/06/28 00:07:08;;;;;;;6.37;3.93;;;;;;;20.77;100.00;95898.56;5031683;28;20207;-88
2021/06/28 00:09:37;;;;;;;9.83;4.77;;;;;;;20.84;100.00;95897.41;5031679;28;20213;-89
2021/06/28 00:12:05;;;;;;;4.10;3.70;;;;;;;20.81;100.00;95897.06;5031699;28;20683;-88
2021/06/28 00:14:32;;;;;;;4.70;3.50;;;;;;;20.76;100.00;95905.78;5031851;28;20199;-90
2021/06/28 00:17:00;;;;;;;6.83;3.77;;;;;;;20.88;100.00;95898.56;5031848;28;20252;-89
2021/06/28 00:19:27;;;;;;;7.07;4.10;;;;;;;20.74;100.00;95891.03;5031976;28;20285;-90
2021/06/28 00:21:54;;;;;;;7.47;4.37;;;;;;;20.77;100.00;95895.91;5031921;28;20198;-89
2021/06/28 00:24:22;;;;;;;4.23;3.83;;;;;;;20.80;100.00;95892.78;5031579;28;20321;-90
2021/06/28 00:26:50;;;;;;;6.30;4.20;;;;;;;20.80;100.00;95885.56;5031712;28;20251;-90
2021/06/28 00:29:18;;;;;;;4.03;3.53;;;;;;;20.80;100.00;95882.09;5032218;28;20628;-89
2021/06/28 00:31:46;;;;;;;5.47;3.67;;;;;;;20.75;100.00;95877.47;5031781;28;20199;-89
2021/06/28 00:34:13;;;;;;;6.93;3.77;;;;;;;20.75;100.00;95873.94;5031658;28;20195;-89
2021/06/28 00:36:41;;;;;;;6.00;4.00;;;;;;;20.77;100.00;95882.56;5031705;28;20190;-89
2021/06/28 00:39:08;;;;;;;4.40;3.93;;;;;;;20.81;100.00;95878.38;5031459;28;20255;-90
2021/06/28 00:41:35;;;;;;;6.03;4.00;;;;;;;20.78;100.00;95879.66;5031755;28;20281;-89
2021/06/28 00:44:04;;;;;;;4.27;3.97;;;;;;;20.82;100.00;95885.34;5031332;28;20219;-89
2021/06/28 00:46:32;;;;;;;7.17;4.53;;;;;;;20.81;100.00;95879.16;5030910;28;20199;-89
2021/06/28 00:48:59;;;;;;;4.60;3.67;;;;;;;20.78;100.00;95876.16;5031027;28;20293;-89
2021/06/28 00:51:26;;;;;;;7.73;3.50;;;;;;;20.74;100.00;95881.16;5031152;28;20249;-89
2021/06/28 00:53:54;;;;;;;6.57;3.67;;;;;;;20.68;100.00;95884.78;5031305;28;20199;-89
2021/06/28 00:56:21;;;;;;;7.23;3.60;;;;;;;20.67;100.00;95883.94;5031145;28;20224;-90
2021/06/28 00:58:49;;;;;;;6.47;3.87;;;;;;;20.71;100.00;95884.28;5031049;28;20254;-89
2021/06/28 01:01:18;;;;;;;5.57;3.80;;;;;;;20.64;100.00;95884.41;5030625;28;20287;-89
2021/06/28 01:03:46;;;;;;;4.67;3.70;;;;;;;20.61;100.00;95892.88;5031202;28;20576;-89
2021/06/28 01:06:14;;;;;;;8.27;3.87;;;;;;;20.58;100.00;95911.22;5031117;28;20222;-88
2021/06/28 01:08:42;;;;;;;4.17;3.40;;;;;;;20.59;100.00;95907.50;5030933;28;20199;-90
2021/06/28 01:11:09;;;;;;;4.63;4.23;;;;;;;20.67;100.00;95899.13;5030676;28;20754;-89
2021/06/28 01:13:40;;;;;;;6.27;3.77;;;;;;;20.60;100.00;95893.91;5030496;28;20198;-88
2021/06/28 01:16:08;;;;;;;4.73;4.00;;;;;;;20.60;100.00;95890.44;5030448;28;20248;-89
2021/06/28 01:18:37;;;;;;;4.10;3.70;;;;;;;20.44;100.00;95889.22;5030616;28;20198;-88
2021/06/28 01:21:07;;;;;;;8.37;3.90;;;;;;;20.36;100.00;95894.88;5030296;28;20202;-89
2021/06/28 01:23:36;;;;;;;4.43;3.97;;;;;;;20.39;100.00;95894.44;5030580;28;20245;-89
2021/06/28 01:26:07;;;;;;;5.13;4.33;;;;;;;20.38;100.00;95880.28;5030698;28;20299;-90
2021/06/28 01:28:35;;;;;;;7.37;4.50;;;;;;;20.38;100.00;95874.13;5030369;28;20187;-88
2021/06/28 01:31:04;;;;;;;7.20;4.37;;;;;;;20.34;100.00;95862.28;5030359;28;20199;-89
2021/06/28 01:33:31;;;;;;;5.13;4.70;;;;;;;20.28;100.00;95861.34;5030144;28;20234;-89
2021/06/28 01:35:59;;;;;;;5.37;4.87;;;;;;;20.21;100.00;95844.63;5030321;28;20195;-88
2021/06/28 01:38:26;;;;;;;5.73;3.97;;;;;;;20.20;100.00;95853.69;5030040;28;20191;-88
2021/06/28 01:40:55;;;;;;;5.13;4.30;;;;;;;20.28;100.00;95863.19;5029906;28;20210;-89
2021/06/28 01:43:24;;;;;;;4.93;3.83;;;;;;;20.29;100.00;95865.63;5030538;28;20222;-90
2021/06/28 01:45:51;;;;;;;7.77;4.03;;;;;;;20.23;100.00;95882.56;5030112;28;20284;-88
2021/06/28 01:48:19;;;;;;;8.90;4.30;;;;;;;20.30;100.00;95882.47;5029841;28;20241;-88
2021/06/28 01:50:48;;;;;;;5.43;4.13;;;;;;;20.25;100.00;95885.00;5030487;28;20638;-88
2021/06/28 01:53:15;;;;;;;7.93;4.23;;;;;;;20.23;100.00;95898.59;5029905;28;20201;-87
2021/06/28 01:55:43;;;;;;;6.60;3.60;;;;;;;20.22;100.00;95896.13;5030463;28;20194;-88
2021/06/28 01:58:14;;;;;;;4.17;3.50;;;;;;;20.25;100.00;95891.16;5030104;28;20230;-89
2021/06/28 02:00:44;;;;;;;9.77;4.43;;;;;;;20.19;100.00;95900.91;5029199;28;20235;-89
2021/06/28 02:03:14;;;;;;;8.67;4.40;;;;;;;20.24;100.00;95910.88;5029942;28;20244;-89
2021/06/28 02:05:43;;;;;;;5.60;4.47;;;;;;;20.15;100.00;95905.03;5029792;28;20261;-89
2021/06/28 02:08:12;;;;;;;7.37;4.10;;;;;;;20.16;100.00;95904.03;5029994;28;20229;-89
2021/06/28 02:10:41;;;;;;;4.43;4.03;;;;;;;20.21;100.00;95900.66;5030132;28;20202;-89
2021/06/28 02:13:09;;;;;;;6.77;4.37;;;;;;;20.18;100.00;95883.25;5030019;28;20650;-90
2021/06/28 02:15:37;;;;;;;4.67;4.13;;;;;;;20.24;100.00;95878.06;5029589;28;20667;-88
2021/06/28 02:18:05;;;;;;;5.40;4.00;;;;;;;20.21;100.00;95852.63;5029978;28;20638;-89
2021/06/28 02:20:33;;;;;;;5.77;4.63;;;;;;;20.24;100.00;95833.50;5030255;27;20222;-89
2021/06/28 02:23:24;;;;;;;6.93;4.40;;;;;;;20.23;100.00;95815.88;5029883;28;20199;-90
2021/06/28 02:25:54;;;;;;;4.57;4.17;;;;;;;20.18;100.00;95824.53;5029747;28;20210;-88
2021/06/28 02:28:22;;;;;;;4.77;4.40;;;;;;;20.23;100.00;95836.38;5029652;28;20199;-88
2021/06/28 02:30:51;;;;;;;6.90;4.70;;;;;;;20.17;100.00;95844.28;5029248;28;20558;-88
2021/06/28 02:33:18;;;;;;;5.27;4.57;;;;;;;20.15;100.00;95848.19;5029240;28;20582;-88
2021/06/28 02:35:46;;;;;;;4.67;4.10;;;;;;;20.15;100.00;95849.00;5029148;28;20290;-88
2021/06/28 02:38:13;;;;;;;5.47;4.17;;;;;;;20.04;100.00;95852.47;5029551;28;20252;-89
2021/06/28 02:40:41;;;;;;;7.67;4.20;;;;;;;20.06;100.00;95853.06;5029551;28;20229;-88
2021/06/28 02:43:08;;;;;;;8.97;5.10;;;;;;;19.98;100.00;95861.38;5028847;28;20251;-88
2021/06/28 02:45:37;;;;;;;5.60;4.63;;;;;;;20.02;100.00;95870.56;5028753;27;20706;-87
2021/06/28 02:48:07;;;;;;;6.67;4.97;;;;;;;19.97;100.00;95873.09;5029044;28;20195;-88
2021/06/28 02:50:34;;;;;;;8.23;5.43;;;;;;;19.97;100.00;95867.75;5029295;27;20622;-88
2021/06/28 02:53:01;;;;;;;8.23;5.23;;;;;;;20.00;100.00;95861.16;5028952;28;20203;-88
2021/06/28 02:55:29;;;;;;;6.27;5.43;;;;;;;19.94;100.00;95884.22;5028944;28;20199;-87
2021/06/28 02:57:56;;;;;;;6.50;4.57;;;;;;;19.95;100.00;95875.16;5028701;28;20231;-87
2021/06/28 03:00:25;;;;;;;7.30;5.93;;;;;;;19.94;100.00;95882.34;5028920;28;20199;-87
2021/06/28 03:02:52;;;;;;;6.43;5.80;;;;;;;19.91;100.00;95885.47;5028801;28;20266;-88
2021/06/28 03:05:21;;;;;;;6.83;5.00;;;;;;;19.79;100.00;95886.50;5029347;28;20255;-89
2021/06/28 03:07:48;;;;;;;7.57;4.77;;;;;;;19.82;100.00;95896.72;5028470;28;20230;-87
2021/06/28 03:10:16;;;;;;;6.83;4.97;;;;;;;19.86;100.00;95887.22;5028696;28;20243;-86
2021/06/28 03:12:43;;;;;;;6.40;5.20;;;;;;;19.84;100.00;95884.75;5031601;28;20262;-88
2021/06/28 03:15:14;;;;;;;7.03;4.53;;;;;;;19.90;100.00;95878.53;5032175;28;20199;-87
2021/06/28 03:17:42;;;;;;;6.83;4.07;;;;;;;19.94;100.00;95873.53;5032113;28;20236;-88
2021/06/28 03:20:12;;;;;;;5.43;3.67;;;;;;;19.92;100.00;95879.13;5032594;27;20208;-89
2021/06/28 03:22:42;;;;;;;10.33;4.83;;;;;;;19.99;100.00;95880.88;5031888;28;20199;-90
2021/06/28 03:25:12;;;;;;;7.20;4.03;;;;;;;19.93;100.00;95883.41;5031606;28;20314;-95
2021/06/28 03:27:42;;;;;;;5.47;3.97;;;;;;;19.90;100.00;95899.06;5032950;27;20278;-88
2021/06/28 03:30:13;;;;;;;8.03;4.00;;;;;;;19.93;100.00;95903.94;5032355;27;20663;-89
2021/06/28 03:32:48;;;;;;;5.90;3.70;;;;;;;19.91;100.00;95911.34;5032719;27;20663;-88
2021/06/28 03:35:15;;;;;;;5.33;4.70;;;;;;;19.98;100.00;95919.25;5032893;27;20194;-88
2021/06/28 03:37:44;;;;;;;6.20;4.10;;;;;;;19.93;100.00;95919.94;5031636;28;20195;-88
2021/06/28 03:40:14;;;;;;;5.67;3.87;;;;;;;19.94;100.00;95919.69;5031988;27;20206;-88
2021/06/28 03:42:42;;;;;;;6.97;4.07;;;;;;;19.92;100.00;95913.78;5031753;27;20304;-88
2021/06/28 03:45:11;;;;;;;6.27;4.20;;;;;;;19.91;100.00;95906.81;5032098;27;20215;-88
2021/06/28 03:47:39;;;;;;;5.70;4.23;;;;;;;19.97;100.00;95898.97;5032217;28;20298;-88
2021/06/28 03:50:08;;;;;;;7.43;4.50;;;;;;;19.93;100.00;95896.75;5031627;28;20281;-88
2021/06/28 03:52:36;;;;;;;4.40;3.70;;;;;;;19.99;100.00;95896.88;5031477;28;20685;-88
2021/06/28 03:55:06;;;;;;;4.97;4.33;;;;;;;19.97;100.00;95883.75;5031733;28;20289;-88
2021/06/28 03:57:34;;;;;;;9.37;4.63;;;;;;;19.91;100.00;95890.00;5032012;28;20219;-89
2021/06/28 04:00:06;;;;;;;5.13;4.33;;;;;;;19.93;100.00;95871.94;5029251;28;20202;-89
2021/06/28 04:02:37;;;;;;;4.57;4.07;;;;;;;19.93;100.00;95872.75;5031699;28;20366;-90
2021/06/28 04:05:05;;;;;;;5.00;4.50;;;;;;;19.89;100.00;95881.44;5029154;28;20265;-85
2021/06/28 04:07:32;;;;;;;6.50;4.27;;;;;;;19.93;100.00;95870.06;5029675;28;20206;-86
2021/06/28 04:10:00;;;;;;;5.27;4.77;;;;;;;19.99;100.00;95862.22;5030899;28;20202;-86
2021/06/28 04:12:29;;;;;;;9.23;4.23;;;;;;;19.96;100.00;95860.81;5030963;27;20197;-86
2021/06/28 04:14:56;;;;;;;5.57;4.53;;;;;;;20.03;100.00;95861.53;5031151;28;20619;-86
2021/06/28 04:17:23;;;;;;;5.57;4.07;;;;;;;20.03;100.00;95866.06;5030944;28;20256;-87
2021/06/28 04:19:51;;;;;;;6.57;4.10;;;;;;;20.01;100.00;95866.25;5030877;28;20286;-86
2021/06/28 04:22:18;;;;;;;4.33;3.77;;;;;;;20.03;100.00;95858.84;5030564;28;20315;-86
2021/06/28 04:24:45;;;;;;;6.23;4.10;;;;;;;20.06;100.00;95853.06;5030046;28;20275;-86
2021/06/28 04:27:13;;;;;;;4.87;4.13;;;;;;;20.06;100.00;95866.41;5029052;28;20243;-86
2021/06/28 04:29:41;;;;;;;6.67;3.93;;;;;;;20.07;100.00;95857.34;5029701;28;20263;-86
2021/06/28 04:32:09;;;;;;;7.83;4.33;;;;;;;20.04;100.00;95862.34;5030435;28;20753;-86
2021/06/28 04:34:38;;;;;;;7.97;3.93;;;;;;;20.10;100.00;95856.09;5030990;28;20191;-85
2021/06/28 04:37:05;;;;;;;7.77;4.13;;;;;;;20.22;100.00;95853.44;5030621;28;20199;-86
2021/06/28 04:39:33;;;;;;;6.33;4.00;;;;;;;20.18;100.00;95850.41;5030625;28;20203;-86
2021/06/28 04:42:00;;;;;;;4.60;4.20;;;;;;;20.26;100.00;95841.25;5030431;28;20237;-87
2021/06/28 04:44:27;;;;;;;4.93;3.50;;;;;;;20.32;100.00;95827.00;5030363;28;20199;-87
2021/06/28 04:46:56;;;;;;;4.47;3.87;;;;;;;20.32;100.00;95827.00;5030455;28;20673;-86
2021/06/28 04:49:24;;;;;;;3.80;3.50;;;;;;;20.34;100.00;95820.41;5030436;28;20694;-86
2021/06/28 04:51:52;;;;;;;6.07;3.93;;;;;;;20.44;100.00;95825.16;5030218;28;20199;-87
2021/06/28 04:54:19;;;;;;;7.23;4.70;;;;;;;20.50;100.00;95824.25;5030377;28;20199;-87
2021/06/28 04:56:46;;;;;;;4.87;4.37;;;;;;;20.52;100.00;95829.38;5030397;28;20629;-87
2021/06/28 04:59:15;;;;;;;6.47;4.90;;;;;;;20.53;100.00;95823.00;5030689;28;20203;-86
2021/06/28 05:01:42;;;;;;;7.20;5.37;;;;;;;20.59;100.00;95822.88;5029781;28;20242;-86
2021/06/28 05:04:11;;;;;;;8.17;5.43;;;;;;;20.62;100.00;95826.94;5030239;28;20199;-86
2021/06/28 05:06:39;;;;;;;5.43;4.93;;;;;;;20.77;100.00;95829.13;5030314;28;20644;-86
2021/06/28 05:09:08;;;;;;;5.47;4.97;;;;;;;20.82;100.00;95835.41;5030443;28;20194;-87
2021/06/28 05:11:37;;;;;;;4.73;4.33;;;;;;;20.91;100.00;95835.84;5029739;28;20206;-86
2021/06/28 05:14:05;;;;;;;5.17;4.77;;;;;;;20.95;100.00;95839.69;5030475;28;20199;-86
2021/06/28 05:16:32;;;;;;;6.40;4.70;;;;;;;21.13;100.00;95826.19;5030117;28;20199;-86
2021/06/28 05:19:00;;;;;;;7.67;4.70;;;;;;;21.22;100.00;95833.84;5030135;28;20286;-87
2021/06/28 05:21:29;;;;;;;4.73;4.13;;;;;;;21.27;100.00;95834.75;5029752;28;20685;-87
2021/06/28 05:23:56;;;;;;;6.23;4.43;;;;;;;21.40;100.00;95847.06;5029910;28;20601;-86
2021/06/28 05:26:23;;;;;;;5.33;4.50;;;;;;;21.52;100.00;95847.03;5029715;28;20767;-86
2021/06/28 05:28:51;;;;;;;4.80;3.87;;;;;;;21.63;100.00;95848.06;5029368;28;20286;-86
2021/06/28 05:31:18;;;;;;;5.53;4.50;;;;;;;21.77;100.00;95844.84;5029513;28;20251;-86
2021/06/28 05:33:45;;;;;;;4.20;3.80;;;;;;;21.93;100.00;95850.50;5028806;28;20195;-85
2021/06/28 05:36:13;;;;;;;6.80;4.60;;;;;;;22.07;100.00;95849.13;5029860;28;20631;-86
2021/06/28 05:38:42;;;;;;;4.40;4.00;;;;;;;22.24;100.00;95868.72;5029652;28;20574;-87
2021/06/28 05:41:09;;;;;;;3.60;3.30;;;;;;;22.41;100.00;95879.47;5029314;28;20217;-87
2021/06/28 05:43:37;;;;;;;3.83;3.53;;;;;;;22.46;100.00;95868.81;5029576;28;20741;-86
2021/06/28 05:46:05;;;;;;;3.80;3.50;;;;;;;22.61;100.00;95883.50;5029477;28;20262;-86
2021/06/28 05:48:32;;;;;;;4.80;4.10;;;;;;;22.79;100.00;95899.31;5029515;28;20206;-87
2021/06/28 05:50:59;;;;;;;7.73;4.27;;;;;;;22.96;100.00;95905.50;5029013;28;20252;-86
2021/06/28 05:53:27;;;;;;;7.23;4.17;;;;;;;23.19;100.00;95909.88;5028357;28;20195;-86
2021/06/28 05:55:58;;;;;;;4.37;3.97;;;;;;;23.29;100.00;95924.50;5028167;28;20206;-87
2021/06/28 05:58:26;;;;;;;6.47;3.63;;;;;;;23.40;100.00;95935.09;5029372;28;20626;-87
2021/06/28 06:00:55;;;;;;;5.90;4.13;;;;;;;23.53;100.00;95925.06;5028903;28;20325;-85
2021/06/28 06:17:40;;;;;;;3.80;3.50;;;;;;;24.50;100.00;95977.25;5065536;28;20562;-85
2021/06/28 06:20:09;;;;;;;4.37;4.00;;;;;;;24.60;100.00;95980.84;5065766;28;20670;-86
2021/06/28 06:22:37;;;;;;;7.43;3.43;;;;;;;24.70;100.00;95988.19;5065737;28;20274;-85
2021/06/28 06:25:04;;;;;;;6.53;4.00;;;;;;;24.82;100.00;95986.13;5065601;28;20189;-85
2021/06/28 06:27:32;;;;;;;3.80;3.50;;;;;;;25.05;100.00;95997.63;5065424;28;20198;-83
2021/06/28 06:29:59;;;;;;;4.27;3.37;;;;;;;25.09;100.00;96033.69;5065441;27;20236;-83
2021/06/28 06:32:27;;;;;;;4.30;3.90;;;;;;;25.23;100.00;96059.13;5065326;28;20198;-84
2021/06/28 06:34:55;;;;;;;3.53;3.23;;;;;;;25.19;100.00;96082.22;5065646;28;20228;-86
2021/06/28 06:37:23;;;;;;;3.53;3.30;;;;;;;25.30;100.00;96078.53;5065247;28;20198;-86
2021/06/28 06:39:50;;;;;;;5.27;3.67;;;;;;;25.45;100.00;96064.38;5065404;28;20208;-86
2021/06/28 06:55:22;;;;;;;3.67;3.47;;;;;;;26.10;100.00;96164.75;5065942;28;20541;-88
2021/06/28 06:57:49;;;;;;;4.00;3.70;;;;;;;26.21;100.00;96196.06;5065892;28;20225;-85
2021/06/28 07:00:19;;;;;;;4.18;3.35;;;;;;;26.27;100.00;96178.06;5065803;28;20201;-86
2021/06/28 07:02:47;;;;;;;3.63;3.33;;;;;;;26.47;100.00;96163.94;5065388;28;20204;-85
2021/06/28 07:05:15;;;;;;;4.75;3.00;;;;;;;26.47;100.00;96213.25;5065787;28;20201;-85
2021/06/28 07:07:43;;;;;;;3.63;3.33;;;;;;;26.60;100.00;96203.84;5065764;28;20293;-86
2021/06/28 07:10:13;;;;;;;4.00;2.97;;;;;;;26.70;100.00;96222.78;5065462;28;20212;-85
2021/06/28 07:12:42;;;;;;;4.45;3.50;;;;;;;26.70;100.00;96220.09;5065578;28;20202;-85
2021/06/28 07:15:12;;;;;;;3.85;3.55;;;;;;;26.78;100.00;96173.78;5065254;28;20201;-85
2021/06/28 07:17:41;;;;;;;3.53;3.17;;;;;;;27.11;100.00;96173.59;5065463;28;20236;-84
2021/06/28 07:20:11;;;;;;;5.70;3.45;;;;;;;27.02;100.00;96271.22;5065511;27;20745;-85
2021/06/28 07:22:38;;;;;;;3.78;3.47;;;;;;;26.94;100.00;96325.66;5065351;28;20198;-85
2021/06/28 07:25:06;;;;;;;3.50;3.20;;;;;;;26.90;100.00;96329.94;5065383;28;20288;-85
2021/06/28 07:27:34;;;;;;;3.78;3.38;;;;;;;27.18;100.00;96317.97;5065459;28;20202;-85
2021/06/28 07:30:04;;;;;;;5.60;4.15;;;;;;;27.09;100.00;96364.56;5065121;28;20194;-85
2021/06/28 07:32:32;;;;;;;3.95;3.65;;;;;;;27.17;100.00;96385.72;5065387;28;20193;-85
2021/06/28 07:34:59;;;;;;;3.83;3.42;;;;;;;27.41;100.00;96359.91;5065008;28;20193;-85
2021/06/28 07:37:26;;;;;;;4.45;4.05;;;;;;;27.55;100.00;96345.94;5065264;28;20197;-85
2021/06/28 07:39:54;;;;;;;4.97;3.80;;;;;;;27.68;100.00;96351.66;5065136;28;20280;-85
2021/06/28 07:42:23;;;;;;;3.47;3.17;;;;;;;27.63;100.00;96394.81;5065505;28;20201;-86
2021/06/28 07:44:51;;;;;;;5.65;3.45;;;;;;;27.68;100.00;96419.16;5065229;28;20573;-85
2021/06/28 07:47:20;;;;;;;3.83;3.33;;;;;;;27.87;100.00;96426.81;5065025;28;20237;-85
2021/06/28 07:49:47;;;;;;;6.15;3.35;;;;;;;28.06;100.00;96405.56;5064822;28;20193;-85
2021/06/28 07:52:15;;;;;;;3.88;3.58;;;;;;;27.78;100.00;96487.81;5065012;28;20231;-85
2021/06/28 07:54:44;;;;;;;3.83;3.50;;;;;;;27.88;100.00;96461.66;5060208;28;20259;-85
2021/06/28 07:57:11;;;;;;;4.53;3.55;;;;;;;27.96;100.00;96441.44;5051663;28;20604;-85
2021/06/28 07:59:39;;;;;;;3.97;3.60;;;;;;;28.13;100.00;96485.28;5051594;28;20589;-85
2021/06/28 08:02:06;;;;;;;3.47;3.15;;;;;;;28.05;100.00;96501.16;5051471;28;20661;-85
2021/06/28 08:04:35;;;;;;;3.60;3.30;;;;;;;28.24;100.00;96532.06;5051267;28;20654;-85
2021/06/28 08:07:02;;;;;;;4.47;3.60;;;;;;;28.20;100.00;96553.41;5051524;28;20284;-86
2021/06/28 08:09:29;;;;;;;3.00;2.70;;;;;;;28.26;100.00;96553.41;5051136;28;20237;-85
2021/06/28 08:11:58;;;;;;;3.65;3.35;;;;;;;28.31;100.00;96591.28;5051323;28;20194;-86
2021/06/28 08:14:26;;;;;;;3.97;3.67;;;;;;;28.16;100.00;96570.38;5051059;28;20198;-85
2021/06/28 08:16:53;;;;;;;3.83;3.50;;;;;;;28.16;100.00;96598.25;5051332;28;20198;-85
2021/06/28 08:19:21;;;;;;;3.70;3.40;;;;;;;28.28;100.00;96583.69;5051083;28;20732;-85
2021/06/28 08:21:51;;;;;;;5.47;3.63;;;;;;;28.14;100.00;96605.78;5051609;28;20666;-85
2021/06/28 08:24:18;;;;;;;4.82;3.20;;;;;;;28.03;100.00;96603.31;5051632;28;20210;-85
2021/06/28 08:26:46;;;;;;;3.28;3.08;;;;;;;27.97;100.00;96621.34;5051116;28;20259;-85
2021/06/28 08:29:14;;;;;;;6.40;3.60;;;;;;;28.14;100.00;96624.72;5050960;28;20194;-85
2021/06/28 08:31:41;;;;;;;3.40;3.10;;;;;;;28.11;100.00;96644.13;5050975;28;20190;-85
2021/06/28 08:34:08;;;;;;;3.58;3.28;;;;;;;28.33;100.00;96643.16;5050621;28;20198;-86
2021/06/28 08:36:36;;;;;;;3.55;3.25;;;;;;;28.43;100.00;96633.25;5050887;28;20665;-84
2021/06/28 08:39:06;;;;;;;4.43;3.90;;;;;;;28.41;100.00;96626.50;5050759;28;20194;-85
2021/06/28 08:41:35;;;;;;;3.70;3.42;;;;;;;28.46;100.00;96644.63;5051094;28;20242;-85
2021/06/28 08:44:02;;;;;;;4.82;3.47;;;;;;;28.32;100.00;96639.66;5050408;28;20217;-85
2021/06/28 08:46:29;;;;;;;3.70;3.40;;;;;;;28.62;100.00;96638.22;5050707;28;20230;-85
2021/06/28 08:48:57;;;;;;;4.82;3.30;;;;;;;28.98;100.00;96628.31;5050518;28;20194;-85
2021/06/28 08:51:25;;;;;;;4.05;3.10;;;;;;;29.25;100.00;96640.84;5050363;28;20208;-85
2021/06/28 08:53:55;;;;;;;4.88;3.30;;;;;;;29.29;100.00;96633.81;5050377;28;20246;-85
2021/06/28 08:56:24;;;;;;;6.35;5.75;;;;;;;29.50;100.00;96638.16;5050924;28;20658;-86
2021/06/28 08:58:51;;;;;;;3.60;3.30;;;;;;;29.42;100.00;96651.41;5050404;28;20219;-86
2021/06/28 09:01:18;;;;;;;3.20;2.95;;;;;;;29.50;100.00;96637.34;5050721;28;20252;-85
2021/06/28 09:03:46;;;;;;;6.45;3.95;;;;;;;29.75;100.00;96634.63;5050687;28;20681;-86
2021/06/28 09:06:14;;;;;;;3.80;2.97;;;;;;;29.74;100.00;96659.31;5050080;28;20198;-86
2021/06/28 09:08:54;;;;;;;4.50;3.95;;;;;;;29.82;100.00;96656.03;5050450;28;20654;-85
2021/06/28 09:11:23;;;;;;;5.55;3.58;;;;;;;29.72;100.00;96669.59;5050414;28;20264;-85
2021/06/28 09:13:53;;;;;;;5.35;3.65;;;;;;;30.02;100.00;96657.91;5050286;28;20209;-86
2021/06/28 09:16:23;;;;;;;3.60;2.90;;;;;;;30.17;100.00;96674.19;5050372;28;20277;-85
2021/06/28 09:18:56;;;;;;;4.95;3.88;;;;;;;29.90;100.00;96679.91;5050310;28;20236;-86
2021/06/28 09:21:38;;;;;;;4.47;3.80;;;;;;;29.75;100.00;96674.47;5050363;28;20614;-86
2021/06/28 09:24:09;;;;;;;3.50;3.20;;;;;;;29.77;100.00;96678.53;5050345;28;20220;-86
2021/06/28 09:26:38;;;;;;;5.35;3.65;;;;;;;30.05;100.00;96685.28;5050209;28;20280;-86
2021/06/28 09:29:08;;;;;;;3.80;3.50;;;;;;;30.25;100.00;96692.63;5049884;28;20194;-86
2021/06/28 09:31:44;;;;;;;4.28;3.42;;;;;;;30.31;100.00;96698.84;5050042;28;20202;-86
2021/06/28 09:34:15;;;;;;;4.03;3.70;;;;;;;30.42;100.00;96705.88;5049898;28;20235;-86
2021/06/28 09:36:48;;;;;;;3.70;3.40;;;;;;;30.49;100.00;96708.31;5050027;28;20293;-85
2021/06/28 09:39:20;;;;;;;4.72;3.30;;;;;;;30.44;100.00;96711.81;5049761;28;20265;-85
2021/06/28 09:41:57;;;;;;;3.90;3.60;;;;;;;30.67;100.00;96715.84;5050138;28;20300;-86
2021/06/28 09:44:25;;;;;;;3.60;3.17;;;;;;;30.73;100.00;96719.34;5049778;28;20232;-86
2021/06/28 09:47:05;;;;;;;6.55;3.78;;;;;;;30.93;100.00;96719.31;5049803;28;20201;-85
2021/06/28 09:49:33;;;;;;;3.70;3.40;;;;;;;30.78;100.00;96716.63;5049736;28;20190;-86
2021/06/28 09:52:00;;;;;;;3.42;2.80;;;;;;;30.74;100.00;96710.13;5049541;28;20198;-86
2021/06/28 09:54:28;;;;;;;2.95;2.75;;;;;;;30.54;100.00;96716.41;5049427;28;20735;-86
2021/06/28 09:56:57;;;;;;;5.53;3.40;;;;;;;30.17;100.00;96695.88;5049823;28;20289;-85
2021/06/28 09:59:30;;;;;;;3.38;2.90;;;;;;;30.31;100.00;96701.56;5049317;28;20721;-85
2021/06/28 10:02:14;;;;;;;3.42;3.13;;;;;;;30.38;100.00;96706.69;5049545;28;20573;-85
2021/06/28 10:04:48;;;;;;;3.15;2.85;;;;;;;30.50;100.00;96708.00;5048377;28;20225;-86
2021/06/28 10:07:33;;;;;;;3.58;3.28;;;;;;;30.67;100.00;96704.19;5049890;28;20272;-85
2021/06/28 10:10:20;;;;;;;3.95;2.88;;;;;;;30.90;100.00;96717.16;5049566;28;20186;-85
2021/06/28 10:13:01;;;;;;;3.63;3.25;;;;;;;30.90;100.00;96714.44;5049584;28;20560;-86
2021/06/28 10:15:30;;;;;;;4.60;4.07;;;;;;;31.08;100.00;96709.47;5049243;28;20190;-85
2021/06/28 10:17:58;;;;;;;2.95;2.67;;;;;;;30.89;100.00;96718.22;5049258;28;20202;-86
2021/06/28 10:20:27;;;;;;;3.60;3.30;;;;;;;30.65;100.00;96700.91;5049185;28;20224;-85
2021/06/28 10:22:55;;;;;;;4.78;3.70;;;;;;;30.86;100.00;96702.50;5049009;28;20251;-85
2021/06/28 10:25:24;;;;;;;5.85;3.85;;;;;;;31.05;100.00;96693.75;5048462;28;20289;-86
2021/06/28 10:27:54;;;;;;;3.83;3.15;;;;;;;31.24;100.00;96695.53;5049256;28;20289;-86
2021/06/28 10:30:25;;;;;;;4.13;3.35;;;;;;;30.95;100.00;96691.88;5048962;28;20198;-85
2021/06/28 10:32:59;;;;;;;3.83;3.17;;;;;;;30.61;100.00;96691.72;5049488;28;20575;-85
2021/06/28 10:35:30;;;;;;;3.67;3.38;;;;;;;30.42;100.00;96676.03;5049218;28;20186;-85
2021/06/28 10:38:02;;;;;;;2.92;2.72;;;;;;;30.41;100.00;96674.41;5049261;28;20753;-85
2021/06/28 10:40:44;;;;;;;3.00;2.80;;;;;;;30.62;100.00;96669.75;5048928;28;20242;-85
2021/06/28 10:43:26;;;;;;;5.20;3.30;;;;;;;30.66;100.00;96659.97;5049192;28;20185;-86
2021/06/28 10:45:54;;;;;;;3.22;3.00;;;;;;;30.99;100.00;96668.50;5048956;28;20650;-85
2021/06/28 10:48:23;;;;;;;2.90;2.65;;;;;;;31.00;100.00;96665.53;5048865;28;20666;-86
2021/06/28 10:50:52;;;;;;;4.30;3.00;;;;;;;31.01;100.00;96661.72;5049255;28;20216;-86
2021/06/28 10:53:46;;;;;;;3.40;3.20;;;;;;;30.73;100.00;96665.09;5048957;28;20226;-85
2021/06/28 10:56:54;;;;;;;3.80;3.50;;;;;;;30.76;100.00;96675.44;5049034;28;20550;-86
2021/06/28 10:59:31;;;;;;;3.55;3.25;;;;;;;31.17;100.00;96675.19;5048698;28;20186;-86
2021/06/28 11:02:01;;;;;;;3.15;2.95;;;;;;;31.07;100.00;96675.25;5049196;28;20193;-85
2021/06/28 11:04:30;;;;;;;5.22;3.17;;;;;;;31.06;100.00;96668.22;5049018;28;20217;-85
2021/06/28 11:07:07;;;;;;;3.50;3.20;;;;;;;30.87;100.00;96666.13;5048621;28;20288;-86
2021/06/28 11:09:36;;;;;;;3.65;3.35;;;;;;;30.95;100.00;96673.69;5048598;28;20273;-86
2021/06/28 11:12:05;;;;;;;4.47;3.47;;;;;;;30.62;100.00;96663.47;5048796;28;20582;-85
2021/06/28 11:14:47;;;;;;;4.22;3.92;;;;;;;30.18;100.00;96669.59;5048425;28;20278;-85
2021/06/28 11:17:17;;;;;;;3.38;2.90;;;;;;;29.93;100.00;96664.97;5048528;28;20196;-85
2021/06/28 11:19:53;;;;;;;3.30;3.10;;;;;;;30.20;100.00;96662.78;5048918;28;20204;-85
2021/06/28 11:22:32;;;;;;;3.42;3.13;;;;;;;30.52;100.00;96659.75;5048932;28;20185;-86
2021/06/28 11:25:00;;;;;;;3.70;3.40;;;;;;;30.66;100.00;96656.44;5048248;28;20225;-86
2021/06/28 11:27:28;;;;;;;3.50;3.20;;;;;;;30.60;100.00;96657.53;5048420;28;20198;-85
2021/06/28 11:29:57;;;;;;;3.78;3.42;;;;;;;30.44;100.00;96664.91;5049065;28;20576;-85
2021/06/28 11:32:26;;;;;;;4.45;3.70;;;;;;;30.55;100.00;96659.19;5052222;28;20186;-86
2021/06/28 11:34:54;;;;;;;4.45;4.05;;;;;;;30.49;100.00;96660.28;5051762;28;20194;-86
2021/06/28 11:37:22;;;;;;;3.45;3.15;;;;;;;30.87;100.00;96655.28;5052140;28;20274;-86
2021/06/28 11:39:56;;;;;;;3.25;2.95;;;;;;;30.83;100.00;96656.09;5051891;28;20564;-85
2021/06/28 11:42:30;;;;;;;3.75;3.45;;;;;;;31.03;100.00;96658.72;5051811;28;20201;-85
2021/06/28 11:45:02;;;;;;;3.63;3.33;;;;;;;31.11;100.00;96658.13;5051715;28;20235;-86
2021/06/28 11:48:01;;;;;;;3.63;3.25;;;;;;;31.18;100.00;96658.63;5051656;28;20237;-85
2021/06/28 11:50:36;;;;;;;8.48;3.28;;;;;;;31.21;100.00;96659.97;5051392;28;20194;-87
2021/06/28 11:53:06;;;;;;;3.40;3.03;;;;;;;31.07;100.00;96658.97;5051192;28;20190;-88
2021/06/28 11:55:37;;;;;;;3.75;3.45;;;;;;;31.26;100.00;96659.94;5051626;28;20631;-88
2021/06/28 11:58:05;;;;;;;4.50;3.75;;;;;;;31.34;100.00;96672.94;5051785;28;20570;-88
2021/06/28 12:00:35;;;;;;;4.00;3.13;;;;;;;31.41;100.00;96651.72;5051575;28;20615;-85
2021/06/28 12:03:14;;;;;;;3.78;3.47;;;;;;;31.37;100.00;96652.56;5051496;28;20198;-85